Amboy, MN (56010)

12:15 AM CST on February 13, 2016 (GMT -0600)
Golly Farms | | Change Station
CLOSE
Current Station
Personal Weather Station
Location: Winnebago, MN
Elevation: 1079 ft
Nearby Weather Stations

Elev 1079 ft 43.80 °N, 94.20 °W | Updated 7 minutes ago

Mostly Cloudy
Mostly Cloudy
-5.0 °F
Feels Like -5 °F
N
3.0
Wind Variable Wind from NNE
Gusts 7.0 mph

Today
High -- | Low -- °F
--% Chance of Precip.
Yesterday
High -- | Low -- °F
Precip. -- in
Pressure 30.64 in
Visibility 10.0 miles
Clouds Clear
Windchill -5 °F
Dew Point -9 °F
Humidity 81%
Rainfall 0.00 in
Snow Depth Not available.
7:19 AM 5:43 PM
Waxing Crescent, 27% visible
METAR KJYG 130555Z AUTO 29006KT 10SM CLR M19/M22 A3064 RMK AO2
Pressure 30.64 in
Visibility 10.0 miles
Clouds Clear
Windchill -5 °F
Dew Point -9 °F
Humidity 81%
Rainfall 0.00 in
Snow Depth Not available.
7:19 AM 5:43 PM
Waxing Crescent, 27% visible
METAR KJYG 130555Z AUTO 29006KT 10SM CLR M19/M22 A3064 RMK AO2

10-Day Weather Forecast

Almanac

Astronomy

Feb. 13, 2016 Rise Set
Actual Time
Civil Twilight
Nautical Twilight
Astronomical Twilight
Moon
Length of Visible Light
Length of Day
Tomorrow will be .
, % of the Moon is Illuminated

Today's Extremes

State Highs State Lows

Community

WunderPhotos

Upload Photos

1,892,513 photos uploaded!

WunderBlog® & News

Nearby

Air Quality

  Air Quality AQ Index Pollutant
Not available.

Snow Depth

Station Depth Elevation

Earthquake Activity

City Distance Mag. Time & Date
Minimum magnitude displayed is 2.5.

Coastal Water Temperatures

Place Temperature

Stations

Nearby Weather Stations

Station Location Temp. Windchill Dew Point Humidity Wind Precip. Elev Updated Type
                   

Watches & Warnings

Wind Chill Advisory, Winter Storm Watch
Issued: 9:57 PM CST Feb. 12, 2016 – National Weather Service

... Wind Chill Advisory remains in effect until 8 am CST
Saturday...
... Winter Storm Watch remains in effect from Saturday evening
through Sunday morning...

* snow is likely from Saturday evening through Sunday morning.

* Total snow accumulations of 4 to 6 inches are possible.

* Significant reductions in visibility are possible.

* The potential exists for difficult driving conditions.

A Wind Chill Advisory remains in effect from 6 PM this evening to
8 am CST Saturday.

* Expect wind chills to range from 25 to 30 below zero... with the
coldest wind chills occurring during the early morning hours on
Saturday.

* The cold wind chills will cause frostbite in as little as 30
minutes to exposed skin.

Precautionary/preparedness actions...

A Winter Storm Watch means there is a potential for significant
snow... sleet... or ice accumulations that may impact travel.
Continue to monitor the latest forecasts.

A Wind Chill Advisory means that cold air and the wind will
combine to generate low wind chills. Frost bite and hypothermia
can occur if precautions are not taken. Make sure you wear a hat
and gloves.